Portland, Iowa
Current Conditions -  °F | °C
As of 12:17 AM on Thursday 29 Jan 2015 (Local Time) from KMCW Reporting Station
Haze Haze  
Wind Chill: 21°   Ceiling: 500
Heat Index: 33°   Visibility: 3mi
Dew Point: 31°   Wind: 22mph
Humidity: 92%   Direction: 340°NNW
Pressure: 29.83"   Gusts: NA
Location:  43.1451°N, 93.1385°W
Report Text: KMCW 290617Z AUTO 34019KT 3SM BR OVC005 01/M01 A2983 RMK AO2 T00061006 $
Loading
Personal Weather Stations






























Interactive Weather Map New forecast layout! Learn more

10-Day Weather Forecast

Advertisements
Track Severe Weather on mobile